createdAt,value
2023-05-09T00:02:23.980Z,21.27
2023-05-09T00:04:50.574Z,22.17
2023-05-09T00:07:17.811Z,20.77
2023-05-09T00:09:44.347Z,24.37
2023-05-09T00:12:11.137Z,21.00
2023-05-09T00:14:38.096Z,21.83
2023-05-09T00:17:04.722Z,20.87
2023-05-09T00:19:31.562Z,24.60
2023-05-09T00:21:58.033Z,23.47
2023-05-09T00:24:25.101Z,22.10
2023-05-09T00:26:51.652Z,20.60
2023-05-09T00:29:18.455Z,23.53
2023-05-09T00:31:44.903Z,23.60
2023-05-09T00:34:11.743Z,24.63
2023-05-09T00:36:38.432Z,23.83
2023-05-09T00:39:04.889Z,25.90
2023-05-09T00:41:31.558Z,23.03
2023-05-09T00:43:58.027Z,24.13
2023-05-09T00:46:24.599Z,22.90
2023-05-09T00:48:51.442Z,24.67
2023-05-09T00:51:18.280Z,21.93
2023-05-09T00:53:45.977Z,22.23
2023-05-09T00:56:12.504Z,24.27
2023-05-09T00:58:39.357Z,24.03
2023-05-09T01:01:05.867Z,25.33
2023-05-09T01:03:32.998Z,27.03
2023-05-09T01:06:09.689Z,25.77
2023-05-09T01:09:00.748Z,26.47
2023-05-09T01:11:44.047Z,24.07
2023-05-09T01:14:40.297Z,26.10
2023-05-09T01:17:31.662Z,25.53
2023-05-09T01:20:24.907Z,26.50
2023-05-09T01:23:16.429Z,25.47
2023-05-09T01:25:54.074Z,26.07
2023-05-09T01:28:41.730Z,25.17
2023-05-09T01:31:09.978Z,25.80
2023-05-09T01:33:39.981Z,26.17
2023-05-09T01:36:12.898Z,27.10
2023-05-09T01:38:42.122Z,29.53
2023-05-09T01:41:11.035Z,30.87
2023-05-09T01:43:38.945Z,29.63
2023-05-09T01:46:07.944Z,29.07
2023-05-09T01:48:36.994Z,29.87
2023-05-09T01:51:03.950Z,28.47
2023-05-09T01:53:31.658Z,30.70
2023-05-09T01:55:59.546Z,37.70
2023-05-09T01:58:27.200Z,38.57
2023-05-09T02:00:54.259Z,41.57
2023-05-09T02:03:22.465Z,44.50
2023-05-09T02:05:50.430Z,50.10
2023-05-09T02:08:19.366Z,53.47
2023-05-09T02:10:47.916Z,64.23
2023-05-09T02:13:14.518Z,64.00
2023-05-09T02:15:43.109Z,62.13
2023-05-09T02:18:09.647Z,67.03
2023-05-09T02:20:36.490Z,66.53
2023-05-09T02:23:03.492Z,61.80
2023-05-09T02:25:31.163Z,69.63
2023-05-09T02:27:58.866Z,64.93
2023-05-09T02:30:28.044Z,72.47
2023-05-09T02:33:01.856Z,73.47
2023-05-09T02:35:29.624Z,71.87
2023-05-09T02:37:58.696Z,66.77
2023-05-09T02:40:28.337Z,73.80
2023-05-09T02:42:55.276Z,78.00
2023-05-09T02:45:22.188Z,80.67
2023-05-09T02:47:48.679Z,71.47
2023-05-09T02:50:15.510Z,79.93
2023-05-09T02:52:41.995Z,81.93
2023-05-09T02:55:09.379Z,84.13
2023-05-09T02:57:35.846Z,76.13
2023-05-09T03:00:03.484Z,91.37
2023-05-09T03:02:29.989Z,85.00
2023-05-09T03:04:56.812Z,89.10
2023-05-09T03:07:23.260Z,91.43
2023-05-09T03:09:49.981Z,91.10
2023-05-09T03:12:16.458Z,96.97
2023-05-09T03:14:42.895Z,91.07
2023-05-09T03:17:09.737Z,90.47
2023-05-09T03:19:36.174Z,88.77
2023-05-09T03:22:02.966Z,93.00
2023-05-09T03:24:29.676Z,89.80
2023-05-09T03:26:57.033Z,96.20
2023-05-09T03:29:23.453Z,106.33
2023-05-09T03:31:50.363Z,94.23
2023-05-09T03:34:16.822Z,85.33
2023-05-09T03:36:43.931Z,96.50
2023-05-09T03:39:10.533Z,90.33
2023-05-09T03:41:37.866Z,93.50
2023-05-09T03:44:05.027Z,97.40
2023-05-09T03:46:31.853Z,93.83
2023-05-09T03:48:58.435Z,91.43
2023-05-09T03:51:25.471Z,87.07
2023-05-09T03:53:52.346Z,93.40
2023-05-09T03:56:18.776Z,99.10
2023-05-09T03:58:45.544Z,97.40
2023-05-09T04:01:12.092Z,97.57
2023-05-09T04:03:39.042Z,92.63
2023-05-09T04:06:06.459Z,90.27
2023-05-09T04:08:33.214Z,102.30
2023-05-09T04:11:00.190Z,93.13
2023-05-09T04:13:26.748Z,96.30
2023-05-09T04:15:53.630Z,94.93
2023-05-09T04:18:20.097Z,98.70
2023-05-09T04:20:46.882Z,93.80
2023-05-09T04:23:13.380Z,89.40
2023-05-09T04:25:40.238Z,101.63
2023-05-09T04:28:06.682Z,103.53
2023-05-09T04:30:33.568Z,87.87
2023-05-09T04:33:00.120Z,100.83
2023-05-09T04:35:27.065Z,98.13
2023-05-09T04:37:53.543Z,92.63
2023-05-09T04:40:20.551Z,92.17
2023-05-09T04:42:47.009Z,83.33
2023-05-09T04:45:13.672Z,81.57
2023-05-09T04:47:40.741Z,79.30
2023-05-09T04:50:07.767Z,86.73
2023-05-09T04:52:34.422Z,89.57
2023-05-09T04:55:01.230Z,88.00
2023-05-09T04:57:27.701Z,85.77
2023-05-09T04:59:54.194Z,82.63
2023-05-09T05:02:20.832Z,85.60
2023-05-09T05:04:47.783Z,92.30
2023-05-09T05:07:14.240Z,90.03
2023-05-09T05:09:41.127Z,87.63
2023-05-09T05:12:09.574Z,94.07
2023-05-09T05:14:36.741Z,91.67
2023-05-09T05:17:03.332Z,88.63
2023-05-09T05:19:29.805Z,90.97
2023-05-09T05:21:56.609Z,90.60
2023-05-09T05:24:23.130Z,85.43
2023-05-09T05:26:50.051Z,84.63
2023-05-09T05:29:16.543Z,90.70
2023-05-09T05:31:43.290Z,87.37
2023-05-09T05:34:10.214Z,82.93
2023-05-09T05:36:36.688Z,87.97
2023-05-09T05:39:03.796Z,81.77
2023-05-09T05:41:30.291Z,82.10
2023-05-09T05:43:56.723Z,85.57
2023-05-09T05:46:23.236Z,79.90
2023-05-09T05:48:49.710Z,81.07
2023-05-09T05:51:16.169Z,84.20
2023-05-09T05:53:43.046Z,86.27
2023-05-09T05:56:09.931Z,82.37
2023-05-09T05:58:36.369Z,83.00
2023-05-09T06:01:03.030Z,84.07
2023-05-09T06:03:29.965Z,77.20
2023-05-09T06:05:56.698Z,81.93
2023-05-09T06:08:23.775Z,70.97
2023-05-09T06:10:50.260Z,65.80
2023-05-09T06:13:17.077Z,66.07
2023-05-09T06:15:43.754Z,67.63
2023-05-09T06:18:10.348Z,63.90
2023-05-09T06:20:37.238Z,66.57
2023-05-09T06:23:03.721Z,63.70
2023-05-09T06:25:30.194Z,65.23
2023-05-09T06:27:56.668Z,62.77
2023-05-09T06:30:26.636Z,65.90
2023-05-09T06:32:54.942Z,62.63
2023-05-09T06:35:21.802Z,64.73
2023-05-09T06:37:49.033Z,63.37
2023-05-09T06:40:16.116Z,65.17
2023-05-09T06:42:43.061Z,64.70
2023-05-09T06:45:10.401Z,58.50
2023-05-09T06:47:36.938Z,60.53
2023-05-09T06:50:03.988Z,53.87
2023-05-09T06:52:30.490Z,60.17
2023-05-09T06:54:57.325Z,54.60
2023-05-09T06:57:23.889Z,52.40
2023-05-09T06:59:50.321Z,53.53
2023-05-09T07:02:17.198Z,51.87
2023-05-09T07:04:43.672Z,51.23
2023-05-09T07:07:10.584Z,50.77
2023-05-09T07:09:37.093Z,48.63
2023-05-09T07:12:04.620Z,46.10
2023-05-09T07:14:31.081Z,47.83
2023-05-09T07:17:09.963Z,40.10
2023-05-09T07:19:44.718Z,42.57
2023-05-09T07:22:11.385Z,42.50
2023-05-09T07:24:37.883Z,39.40
2023-05-09T07:27:04.460Z,40.67
2023-05-09T07:29:31.404Z,42.40
2023-05-09T07:31:57.892Z,41.47
2023-05-09T07:34:24.762Z,39.17
2023-05-09T07:36:51.511Z,45.27
2023-05-09T07:39:18.007Z,42.13
2023-05-09T07:41:44.466Z,41.63
2023-05-09T07:44:11.358Z,47.00
2023-05-09T07:46:37.947Z,46.53
2023-05-09T07:49:04.794Z,44.27
2023-05-09T07:51:31.235Z,48.37
2023-05-09T07:53:58.209Z,49.07
2023-05-09T07:56:24.749Z,49.73
2023-05-09T07:58:52.603Z,49.10
2023-05-09T08:01:20.473Z,47.03
2023-05-09T08:03:47.335Z,47.13
2023-05-09T08:06:13.861Z,41.93
2023-05-09T08:08:40.528Z,43.37
2023-05-09T08:11:07.046Z,43.80
2023-05-09T08:13:33.525Z,44.53
2023-05-09T08:16:01.144Z,43.70
2023-05-09T08:18:27.711Z,43.00
2023-05-09T08:20:54.516Z,39.97
2023-05-09T08:23:20.968Z,44.10
2023-05-09T08:25:47.890Z,40.03
2023-05-09T08:28:14.314Z,38.23
2023-05-09T08:30:41.376Z,36.50
2023-05-09T08:33:07.851Z,30.17
2023-05-09T08:35:34.687Z,30.27
2023-05-09T08:38:01.517Z,30.80
2023-05-09T08:40:27.959Z,28.00
2023-05-09T08:42:55.202Z,24.43
2023-05-09T08:45:28.883Z,24.00
2023-05-09T08:47:56.424Z,26.63
2023-05-09T08:50:23.294Z,24.30
2023-05-09T08:52:51.743Z,25.07
2023-05-09T08:55:18.845Z,17.60
2023-05-09T08:57:46.119Z,17.20
2023-05-09T09:00:14.359Z,17.53
2023-05-09T09:02:41.941Z,20.07
2023-05-09T09:05:19.629Z,17.87
2023-05-09T09:07:57.041Z,16.50
2023-05-09T09:10:25.019Z,15.23
2023-05-09T09:12:53.200Z,12.23
2023-05-09T09:15:22.247Z,12.23
2023-05-09T09:17:51.294Z,12.10
2023-05-09T09:20:20.748Z,12.53
2023-05-09T09:22:49.217Z,10.87
2023-05-09T09:25:15.684Z,11.93
2023-05-09T09:27:42.511Z,11.67
2023-05-09T09:30:10.853Z,12.10
2023-05-09T09:32:38.954Z,13.03
2023-05-09T09:35:10.359Z,13.10
2023-05-09T09:37:39.174Z,11.93
2023-05-09T09:40:08.807Z,11.13
2023-05-09T09:42:42.124Z,10.07
2023-05-09T09:45:17.118Z,13.63
2023-05-09T09:47:45.029Z,12.20
2023-05-09T09:50:16.020Z,11.43
2023-05-09T09:52:50.335Z,14.13
2023-05-09T09:55:17.758Z,12.10
2023-05-09T09:57:44.994Z,13.50
2023-05-09T10:00:17.050Z,15.20
2023-05-09T10:02:52.112Z,12.07
2023-05-09T10:05:29.727Z,13.30
2023-05-09T10:07:58.498Z,13.17
2023-05-09T10:10:33.280Z,12.27
2023-05-09T10:13:11.330Z,12.10
2023-05-09T10:15:49.174Z,13.57
2023-05-09T10:18:24.353Z,15.53
2023-05-09T10:20:51.171Z,11.30
2023-05-09T10:23:19.912Z,11.83
2023-05-09T10:26:16.956Z,10.53
2023-05-09T10:28:46.545Z,10.07
2023-05-09T10:31:19.677Z,13.93
2023-05-09T10:33:50.470Z,13.30
2023-05-09T10:36:19.724Z,12.33
2023-05-09T10:38:50.093Z,14.57
2023-05-09T10:41:17.951Z,15.33
2023-05-09T10:43:45.643Z,13.27
2023-05-09T10:46:13.632Z,13.93
2023-05-09T10:48:41.183Z,12.73
2023-05-09T10:51:08.832Z,14.63
2023-05-09T10:53:42.117Z,12.20
2023-05-09T10:56:09.030Z,12.80
2023-05-09T10:58:35.845Z,13.10
2023-05-09T11:01:04.440Z,11.43
2023-05-09T11:03:53.773Z,12.83
2023-05-09T11:06:52.577Z,15.20
2023-05-09T11:09:29.113Z,13.93
2023-05-09T11:11:58.054Z,13.60
2023-05-09T11:14:44.378Z,12.63
2023-05-09T11:17:27.835Z,12.50
2023-05-09T11:19:59.691Z,10.73
2023-05-09T11:22:30.811Z,10.77
2023-05-09T11:25:04.864Z,10.50
2023-05-09T11:27:43.635Z,11.87
2023-05-09T11:30:15.251Z,13.70
2023-05-09T11:32:43.818Z,10.77
2023-05-09T11:35:18.961Z,9.87
2023-05-09T11:37:57.651Z,10.60
2023-05-09T11:40:24.499Z,11.73
2023-05-09T11:42:53.032Z,11.57
2023-05-09T11:45:21.469Z,10.87
2023-05-09T11:47:49.082Z,11.00
2023-05-09T11:50:17.694Z,9.27
2023-05-09T11:52:44.248Z,8.43
2023-05-09T11:55:16.116Z,8.80
2023-05-09T11:57:47.247Z,9.47
2023-05-09T12:00:19.828Z,7.87
2023-05-09T12:02:47.358Z,9.23
2023-05-09T12:05:16.432Z,7.93
2023-05-09T12:07:43.793Z,7.67
2023-05-09T12:10:12.478Z,8.23
2023-05-09T12:12:44.253Z,7.67
2023-05-09T12:15:11.431Z,8.63
2023-05-09T12:17:38.402Z,10.67
2023-05-09T12:20:05.392Z,9.60
2023-05-09T12:22:33.161Z,10.20
2023-05-09T12:25:08.573Z,10.97
2023-05-09T12:27:36.938Z,10.63
2023-05-09T12:30:05.743Z,12.83
2023-05-09T12:32:32.536Z,11.77
2023-05-09T12:35:00.228Z,10.70
2023-05-09T12:37:27.085Z,11.67
2023-05-09T12:40:12.583Z,11.37
2023-05-09T12:42:39.831Z,10.90
2023-05-09T12:45:08.803Z,11.80
2023-05-09T12:47:35.797Z,10.70
2023-05-09T12:50:05.270Z,11.70
2023-05-09T12:52:41.631Z,11.90
2023-05-09T12:55:14.293Z,11.70
2023-05-09T12:57:41.386Z,12.07
2023-05-09T13:00:09.588Z,15.67
2023-05-09T13:02:37.427Z,17.37
2023-05-09T13:05:07.515Z,18.43
2023-05-09T13:07:45.830Z,16.93
2023-05-09T13:10:25.761Z,15.87
2023-05-09T13:12:52.544Z,16.10
2023-05-09T13:15:20.698Z,21.67
2023-05-09T13:17:51.504Z,23.23
2023-05-09T13:20:19.141Z,21.20
2023-05-09T13:22:47.029Z,22.37
2023-05-09T13:25:13.644Z,20.70
2023-05-09T13:27:40.498Z,22.83
2023-05-09T13:30:07.529Z,22.87
2023-05-09T13:32:34.780Z,19.77
2023-05-09T13:35:01.580Z,24.17
2023-05-09T13:37:28.127Z,21.07
2023-05-09T13:39:55.713Z,22.90
2023-05-09T13:42:22.140Z,23.13
2023-05-09T13:44:48.998Z,19.60
2023-05-09T13:47:15.445Z,22.47
2023-05-09T13:49:41.943Z,21.17
2023-05-09T13:52:08.375Z,20.43
2023-05-09T13:54:35.221Z,20.50
2023-05-09T13:57:05.205Z,15.57
2023-05-09T13:59:32.040Z,14.97
2023-05-09T14:01:59.621Z,13.67
2023-05-09T14:04:27.248Z,16.90
2023-05-09T14:06:54.893Z,13.63
2023-05-09T14:09:22.434Z,16.67
2023-05-09T14:11:49.941Z,14.40
2023-05-09T14:14:16.397Z,15.77
2023-05-09T14:16:43.487Z,14.70
2023-05-09T14:19:09.961Z,14.23
2023-05-09T14:21:36.836Z,7.53
2023-05-09T14:24:03.976Z,5.13
2023-05-09T14:26:30.408Z,5.27
2023-05-09T14:28:57.142Z,5.70
2023-05-09T14:31:23.665Z,5.13
2023-05-09T14:33:50.169Z,4.53
2023-05-09T14:36:17.058Z,5.53
2023-05-09T14:38:43.508Z,4.33
2023-05-09T14:41:10.124Z,4.17
2023-05-09T14:43:36.564Z,4.30
2023-05-09T14:46:03.053Z,4.30
2023-05-09T14:48:29.482Z,4.40
2023-05-09T14:50:56.285Z,6.80
2023-05-09T14:53:23.687Z,4.20
2023-05-09T14:55:50.657Z,3.10
2023-05-09T14:58:17.570Z,4.57
2023-05-09T15:00:46.457Z,3.47
2023-05-09T15:03:13.340Z,5.40
2023-05-09T15:05:40.976Z,3.40
2023-05-09T15:08:08.313Z,3.43
2023-05-09T15:10:34.778Z,5.40
2023-05-09T15:13:02.265Z,4.10
2023-05-09T15:15:30.068Z,3.73
2023-05-09T15:17:57.570Z,3.10
2023-05-09T15:20:24.042Z,3.53
2023-05-09T15:22:50.965Z,3.93
2023-05-09T15:25:17.808Z,4.17
2023-05-09T15:27:44.266Z,4.37
2023-05-09T15:30:11.730Z,4.90
2023-05-09T15:32:41.256Z,3.90
2023-05-09T15:35:08.309Z,3.90
2023-05-09T15:37:35.935Z,4.13
2023-05-09T15:40:02.496Z,4.10
2023-05-09T15:42:28.977Z,4.83
2023-05-09T15:44:55.428Z,5.33
2023-05-09T15:47:22.296Z,5.70
2023-05-09T15:49:48.796Z,4.97
2023-05-09T15:52:15.239Z,6.40
2023-05-09T15:54:42.031Z,4.60
2023-05-09T15:57:08.493Z,4.33
2023-05-09T15:59:35.369Z,4.73
2023-05-09T16:02:02.025Z,7.40
2023-05-09T16:04:28.503Z,4.77
2023-05-09T16:06:54.999Z,5.43
2023-05-09T16:09:21.507Z,6.57
2023-05-09T16:11:48.386Z,5.00
2023-05-09T16:14:14.964Z,4.30
2023-05-09T16:16:41.878Z,4.93
2023-05-09T16:19:09.002Z,5.20
2023-05-09T16:21:36.283Z,5.30
2023-05-09T16:24:03.668Z,5.23
2023-05-09T16:26:30.434Z,5.53
2023-05-09T16:28:57.663Z,5.33
2023-05-09T16:31:25.167Z,5.63
2023-05-09T16:33:52.255Z,6.17
2023-05-09T16:36:18.707Z,4.90
2023-05-09T16:38:45.313Z,6.17
2023-05-09T16:41:11.764Z,5.43
2023-05-09T16:43:38.196Z,4.73
2023-05-09T16:46:05.146Z,6.30
2023-05-09T16:48:32.426Z,4.90
2023-05-09T16:50:58.876Z,4.67
2023-05-09T16:53:27.162Z,5.47
2023-05-09T16:55:54.351Z,6.03
2023-05-09T16:58:20.821Z,4.90
2023-05-09T17:00:47.412Z,4.53
2023-05-09T17:03:14.432Z,5.87
2023-05-09T17:05:40.885Z,4.00
2023-05-09T17:08:07.381Z,3.50
2023-05-09T17:10:35.235Z,4.17
2023-05-09T17:13:05.701Z,4.63
2023-05-09T17:15:32.446Z,3.40
2023-05-09T17:17:59.264Z,3.87
2023-05-09T17:20:26.220Z,3.73
2023-05-09T17:22:52.656Z,3.47
2023-05-09T17:25:19.171Z,6.03
2023-05-09T17:27:45.674Z,6.53
2023-05-09T17:30:13.792Z,5.73
2023-05-09T17:32:40.461Z,5.33
2023-05-09T17:35:07.226Z,9.03
2023-05-09T17:37:33.723Z,5.47
2023-05-09T17:40:00.186Z,4.00
2023-05-09T17:42:26.645Z,5.73
2023-05-09T17:44:53.094Z,4.03
2023-05-09T17:47:19.928Z,4.10
2023-05-09T17:49:46.377Z,3.80
2023-05-09T17:52:13.249Z,3.60
2023-05-09T17:54:39.690Z,4.87
2023-05-09T17:57:06.166Z,3.60
2023-05-09T17:59:33.755Z,3.90
2023-05-09T18:02:00.728Z,4.57
2023-05-09T18:04:27.496Z,3.70
2023-05-09T18:06:53.939Z,4.30
2023-05-09T18:09:20.792Z,4.63
2023-05-09T18:11:47.257Z,5.87
2023-05-09T18:14:14.085Z,4.67
2023-05-09T18:16:40.561Z,8.20
2023-05-09T18:19:07.009Z,5.53
2023-05-09T18:21:33.551Z,6.53
2023-05-09T18:23:59.993Z,3.73
2023-05-09T18:26:26.545Z,5.50
2023-05-09T18:28:53.141Z,4.30
2023-05-09T18:31:19.984Z,4.53
2023-05-09T18:33:46.476Z,6.77
2023-05-09T18:36:14.829Z,5.00
2023-05-09T18:38:41.294Z,8.10
2023-05-09T18:41:09.744Z,4.13
2023-05-09T18:43:36.577Z,6.70
2023-05-09T18:46:03.432Z,4.40
2023-05-09T18:48:29.883Z,4.33
2023-05-09T18:50:56.449Z,5.93
2023-05-09T18:53:23.481Z,5.03
2023-05-09T18:55:50.315Z,6.87
2023-05-09T18:58:17.258Z,5.30
2023-05-09T19:00:43.734Z,7.10
2023-05-09T19:03:10.901Z,9.73
2023-05-09T19:05:37.413Z,7.60
2023-05-09T19:08:04.007Z,6.80
2023-05-09T19:10:31.359Z,8.07
2023-05-09T19:12:57.997Z,4.83
2023-05-09T19:15:24.509Z,6.00
2023-05-09T19:17:51.004Z,5.80
2023-05-09T19:20:18.278Z,8.20
2023-05-09T19:22:44.983Z,13.70
2023-05-09T19:25:11.438Z,12.47
2023-05-09T19:27:37.897Z,7.00
2023-05-09T19:30:05.075Z,13.37
2023-05-09T19:32:31.627Z,8.60
2023-05-09T19:34:58.448Z,6.63
2023-05-09T19:37:25.217Z,8.00
2023-05-09T19:39:51.687Z,10.67
2023-05-09T19:42:18.150Z,8.73
2023-05-09T19:44:44.954Z,7.60
2023-05-09T19:47:11.718Z,9.00
2023-05-09T19:49:38.209Z,7.97
2023-05-09T19:52:05.256Z,9.00
2023-05-09T19:54:32.080Z,7.67
2023-05-09T19:56:58.535Z,8.63
2023-05-09T19:59:25.269Z,12.70
2023-05-09T20:01:51.791Z,7.50
2023-05-09T20:04:18.313Z,7.50
2023-05-09T20:06:44.771Z,12.90
2023-05-09T20:09:11.233Z,10.90
2023-05-09T20:11:37.674Z,9.37
2023-05-09T20:14:04.600Z,10.10
2023-05-09T20:16:31.106Z,8.50
2023-05-09T20:18:57.615Z,9.67
2023-05-09T20:21:24.069Z,6.53
2023-05-09T20:23:50.551Z,7.33
2023-05-09T20:26:17.029Z,8.33
2023-05-09T20:28:43.499Z,6.70
2023-05-09T20:31:10.586Z,8.00
2023-05-09T20:33:37.059Z,7.27
2023-05-09T20:36:04.114Z,6.80
2023-05-09T20:38:30.560Z,6.80
2023-05-09T20:40:57.354Z,8.67
2023-05-09T20:43:23.782Z,8.10
2023-05-09T20:45:50.320Z,8.80
2023-05-09T20:48:16.819Z,8.23
2023-05-09T20:50:43.727Z,11.83
2023-05-09T20:53:10.205Z,9.97
2023-05-09T20:55:36.663Z,9.73
2023-05-09T20:58:03.327Z,8.83
2023-05-09T21:00:29.899Z,9.90
2023-05-09T21:02:58.494Z,9.97
2023-05-09T21:05:25.439Z,12.10
2023-05-09T21:07:51.921Z,12.10
2023-05-09T21:10:18.533Z,11.50
2023-05-09T21:12:45.134Z,13.07
2023-05-09T21:15:12.097Z,12.43
2023-05-09T21:17:38.625Z,15.77
2023-05-09T21:20:06.360Z,14.83
2023-05-09T21:22:32.800Z,13.07
2023-05-09T21:24:59.588Z,16.77
2023-05-09T21:27:26.356Z,13.40
2023-05-09T21:29:52.804Z,15.33
2023-05-09T21:32:19.237Z,15.90
2023-05-09T21:34:48.010Z,15.10
2023-05-09T21:37:14.632Z,13.63
2023-05-09T21:39:41.742Z,12.67
2023-05-09T21:42:08.189Z,12.43
2023-05-09T21:44:35.709Z,12.60
2023-05-09T21:47:02.625Z,13.10
2023-05-09T21:49:29.178Z,12.70
2023-05-09T21:51:56.136Z,17.63
2023-05-09T21:54:22.595Z,14.60
2023-05-09T21:56:49.427Z,16.87
2023-05-09T21:59:15.903Z,15.20
2023-05-09T22:01:45.127Z,14.77
2023-05-09T22:04:12.728Z,18.40
2023-05-09T22:06:39.171Z,16.97
2023-05-09T22:09:06.059Z,22.77
2023-05-09T22:11:32.555Z,20.70
2023-05-09T22:13:59.263Z,22.60
2023-05-09T22:16:25.821Z,20.67
2023-05-09T22:18:52.806Z,18.07
2023-05-09T22:21:19.369Z,20.03
2023-05-09T22:23:46.030Z,21.50
2023-05-09T22:26:12.905Z,20.80
2023-05-09T22:28:39.347Z,21.87
2023-05-09T22:31:06.867Z,21.10
2023-05-09T22:33:33.885Z,22.90
2023-05-09T22:36:00.384Z,20.87
2023-05-09T22:38:26.884Z,23.40
2023-05-09T22:40:53.953Z,21.70
2023-05-09T22:43:20.433Z,17.33
2023-05-09T22:45:46.897Z,20.43
2023-05-09T22:48:13.785Z,17.50
2023-05-09T22:50:40.202Z,18.73
2023-05-09T22:53:06.975Z,21.13
2023-05-09T22:55:33.422Z,19.00
2023-05-09T22:58:00.218Z,22.33
2023-05-09T23:00:26.658Z,22.27
2023-05-09T23:02:53.555Z,20.70
2023-05-09T23:05:20.836Z,21.50
2023-05-09T23:07:47.285Z,21.40
2023-05-09T23:10:14.293Z,23.10
2023-05-09T23:12:40.939Z,26.10
2023-05-09T23:15:08.380Z,23.83
2023-05-09T23:17:34.910Z,25.13
2023-05-09T23:20:01.760Z,24.90
2023-05-09T23:22:28.226Z,24.77
2023-05-09T23:24:55.110Z,29.17
2023-05-09T23:27:21.955Z,27.40
2023-05-09T23:29:48.776Z,20.57
2023-05-09T23:32:15.224Z,22.13
2023-05-09T23:34:42.182Z,20.20
2023-05-09T23:37:08.677Z,21.80
2023-05-09T23:39:35.467Z,25.20
2023-05-09T23:42:02.304Z,22.90
2023-05-09T23:44:28.745Z,20.87
2023-05-09T23:46:55.485Z,23.47
2023-05-09T23:49:22.422Z,21.70
2023-05-09T23:51:48.892Z,20.13
2023-05-09T23:54:15.694Z,22.80
2023-05-09T23:56:42.135Z,19.73
2023-05-09T23:59:08.975Z,21.30
